Haiyang, China
Current Conditions -  °F | °C
As of 8:00 PM on Wednesday 22 Oct 2014 (Local Time) from ZSQD Reporting Station
Haze Haze  
Wind Chill: 55°   Ceiling: Unl
Heat Index: 55°   Visibility: 2.1mi
Dew Point: 50°   Wind: 2mph
Humidity: 82%   Direction: 70°ENE
Pressure: 30.18"   Gusts: NA
Location:  36.77°N, 121.17°E
Report Text: ZSQD 221200Z 07001MPS 3500 BR NSC 13/10 Q1022 NOSIG
Loading
Personal Weather Stations






























Interactive Weather Map
Tropical Storm Tracking
New forecast layout! Learn more

10-Day Weather Forecast

Advertisements
Track Severe Weather on mobile